sensor_id;sensor_type;location;lat;lon;timestamp;P1;durP1;ratioP1;P2;durP2;ratioP2
52266;SDS011;38223;50.940;4.034;2023-01-04T00:01:38;3.17;;;1.82;;
52266;SDS011;38223;50.940;4.034;2023-01-04T00:04:08;5.65;;;1.70;;
52266;SDS011;38223;50.940;4.034;2023-01-04T00:06:40;4.50;;;1.90;;
52266;SDS011;38223;50.940;4.034;2023-01-04T00:09:12;3.60;;;2.10;;
52266;SDS011;38223;50.940;4.034;2023-01-04T00:14:14;4.28;;;1.62;;
52266;SDS011;38223;50.940;4.034;2023-01-04T00:16:48;4.70;;;1.72;;
52266;SDS011;38223;50.940;4.034;2023-01-04T00:19:17;5.08;;;2.05;;
52266;SDS011;38223;50.940;4.034;2023-01-04T00:21:49;3.23;;;2.00;;
52266;SDS011;38223;50.940;4.034;2023-01-04T00:24:18;3.35;;;1.70;;
52266;SDS011;38223;50.940;4.034;2023-01-04T00:26:47;3.33;;;2.12;;
52266;SDS011;38223;50.940;4.034;2023-01-04T00:29:22;3.70;;;2.10;;
52266;SDS011;38223;50.940;4.034;2023-01-04T00:31:55;7.25;;;2.52;;
52266;SDS011;38223;50.940;4.034;2023-01-04T00:34:28;5.25;;;2.08;;
52266;SDS011;38223;50.940;4.034;2023-01-04T00:36:59;3.92;;;2.20;;
52266;SDS011;38223;50.940;4.034;2023-01-04T00:39:30;3.33;;;2.15;;
52266;SDS011;38223;50.940;4.034;2023-01-04T00:41:58;3.02;;;2.33;;
52266;SDS011;38223;50.940;4.034;2023-01-04T00:44:37;4.15;;;2.27;;
52266;SDS011;38223;50.940;4.034;2023-01-04T00:47:07;7.12;;;2.58;;
52266;SDS011;38223;50.940;4.034;2023-01-04T00:49:40;4.55;;;2.50;;
52266;SDS011;38223;50.940;4.034;2023-01-04T00:52:11;5.45;;;2.72;;
52266;SDS011;38223;50.940;4.034;2023-01-04T00:54:44;5.83;;;2.22;;
52266;SDS011;38223;50.940;4.034;2023-01-04T00:57:35;3.42;;;2.10;;
52266;SDS011;38223;50.940;4.034;2023-01-04T01:00:06;3.67;;;1.80;;
52266;SDS011;38223;50.940;4.034;2023-01-04T01:02:38;4.95;;;2.40;;
52266;SDS011;38223;50.940;4.034;2023-01-04T01:05:08;2.60;;;2.20;;
52266;SDS011;38223;50.940;4.034;2023-01-04T01:07:40;5.30;;;2.75;;
52266;SDS011;38223;50.940;4.034;2023-01-04T01:10:14;3.27;;;2.05;;
52266;SDS011;38223;50.940;4.034;2023-01-04T01:12:45;3.30;;;2.42;;
52266;SDS011;38223;50.940;4.034;2023-01-04T01:15:18;3.12;;;2.45;;
52266;SDS011;38223;50.940;4.034;2023-01-04T01:17:47;3.83;;;2.75;;
52266;SDS011;38223;50.940;4.034;2023-01-04T01:20:19;3.70;;;2.50;;
52266;SDS011;38223;50.940;4.034;2023-01-04T01:22:52;7.00;;;2.70;;
52266;SDS011;38223;50.940;4.034;2023-01-04T01:25:23;3.22;;;2.65;;
52266;SDS011;38223;50.940;4.034;2023-01-04T01:27:59;2.98;;;2.52;;
52266;SDS011;38223;50.940;4.034;2023-01-04T01:30:30;3.50;;;2.83;;
52266;SDS011;38223;50.940;4.034;2023-01-04T01:33:01;6.80;;;3.02;;
52266;SDS011;38223;50.940;4.034;2023-01-04T01:35:33;5.25;;;3.08;;
52266;SDS011;38223;50.940;4.034;2023-01-04T01:38:05;4.37;;;3.45;;
52266;SDS011;38223;50.940;4.034;2023-01-04T01:40:42;3.98;;;2.80;;
52266;SDS011;38223;50.940;4.034;2023-01-04T01:43:19;4.28;;;2.90;;
52266;SDS011;38223;50.940;4.034;2023-01-04T01:45:55;4.67;;;2.72;;
52266;SDS011;38223;50.940;4.034;2023-01-04T01:48:26;3.60;;;2.65;;
52266;SDS011;38223;50.940;4.034;2023-01-04T01:51:02;4.90;;;2.60;;
52266;SDS011;38223;50.940;4.034;2023-01-04T01:53:35;5.15;;;2.83;;
52266;SDS011;38223;50.940;4.034;2023-01-04T01:56:07;4.50;;;2.10;;
52266;SDS011;38223;50.940;4.034;2023-01-04T01:58:38;7.95;;;2.47;;
52266;SDS011;38223;50.940;4.034;2023-01-04T02:01:11;3.62;;;2.52;;
52266;SDS011;38223;50.940;4.034;2023-01-04T02:03:45;2.87;;;2.42;;
52266;SDS011;38223;50.940;4.034;2023-01-04T02:09:10;5.00;;;2.90;;
52266;SDS011;38223;50.940;4.034;2023-01-04T02:11:42;4.20;;;2.47;;
52266;SDS011;38223;50.940;4.034;2023-01-04T02:14:18;4.65;;;2.87;;
52266;SDS011;38223;50.940;4.034;2023-01-04T02:20:19;4.78;;;2.25;;
52266;SDS011;38223;50.940;4.034;2023-01-04T02:26:36;4.10;;;2.35;;
52266;SDS011;38223;50.940;4.034;2023-01-04T02:38:07;5.12;;;3.10;;
52266;SDS011;38223;50.940;4.034;2023-01-04T02:40:45;5.20;;;2.65;;
52266;SDS011;38223;50.940;4.034;2023-01-04T02:43:34;4.67;;;2.60;;
52266;SDS011;38223;50.940;4.034;2023-01-04T02:46:35;6.33;;;2.60;;
52266;SDS011;38223;50.940;4.034;2023-01-04T02:49:08;4.22;;;2.55;;
52266;SDS011;38223;50.940;4.034;2023-01-04T02:51:55;5.87;;;3.27;;
52266;SDS011;38223;50.940;4.034;2023-01-04T02:54:30;6.03;;;2.83;;
52266;SDS011;38223;50.940;4.034;2023-01-04T02:57:45;4.60;;;2.50;;
52266;SDS011;38223;50.940;4.034;2023-01-04T02:59:56;4.93;;;2.57;;
52266;SDS011;38223;50.940;4.034;2023-01-04T03:08:56;7.95;;;3.08;;
52266;SDS011;38223;50.940;4.034;2023-01-04T03:11:43;3.15;;;2.35;;
52266;SDS011;38223;50.940;4.034;2023-01-04T03:14:29;7.70;;;2.90;;
52266;SDS011;38223;50.940;4.034;2023-01-04T03:17:04;5.67;;;2.40;;
52266;SDS011;38223;50.940;4.034;2023-01-04T03:19:36;5.30;;;1.95;;
52266;SDS011;38223;50.940;4.034;2023-01-04T03:22:29;2.27;;;1.90;;
52266;SDS011;38223;50.940;4.034;2023-01-04T03:25:18;3.87;;;2.30;;
52266;SDS011;38223;50.940;4.034;2023-01-04T03:28:05;4.03;;;1.95;;
52266;SDS011;38223;50.940;4.034;2023-01-04T03:31:09;4.95;;;1.50;;
52266;SDS011;38223;50.940;4.034;2023-01-04T03:33:56;6.17;;;1.85;;
52266;SDS011;38223;50.940;4.034;2023-01-04T03:36:51;4.60;;;2.35;;
52266;SDS011;38223;50.940;4.034;2023-01-04T03:39:33;3.27;;;1.62;;
52266;SDS011;38223;50.940;4.034;2023-01-04T03:45:17;2.65;;;1.92;;
52266;SDS011;38223;50.940;4.034;2023-01-04T03:48:12;4.42;;;2.08;;
52266;SDS011;38223;50.940;4.034;2023-01-04T03:50:57;6.10;;;1.80;;
52266;SDS011;38223;50.940;4.034;2023-01-04T03:53:50;4.53;;;2.25;;
52266;SDS011;38223;50.940;4.034;2023-01-04T03:56:22;3.80;;;1.77;;
52266;SDS011;38223;50.940;4.034;2023-01-04T03:58:56;3.02;;;1.82;;
52266;SDS011;38223;50.940;4.034;2023-01-04T04:01:26;2.98;;;1.65;;
52266;SDS011;38223;50.940;4.034;2023-01-04T04:04:02;5.47;;;1.50;;
52266;SDS011;38223;50.940;4.034;2023-01-04T04:06:49;3.58;;;2.00;;
52266;SDS011;38223;50.940;4.034;2023-01-04T04:09:41;3.62;;;1.90;;
52266;SDS011;38223;50.940;4.034;2023-01-04T04:12:18;4.10;;;1.92;;
52266;SDS011;38223;50.940;4.034;2023-01-04T04:14:50;2.87;;;1.70;;
52266;SDS011;38223;50.940;4.034;2023-01-04T04:17:20;2.55;;;1.30;;
52266;SDS011;38223;50.940;4.034;2023-01-04T04:19:52;6.87;;;1.75;;
52266;SDS011;38223;50.940;4.034;2023-01-04T04:22:22;3.85;;;1.60;;
52266;SDS011;38223;50.940;4.034;2023-01-04T04:24:52;3.65;;;1.60;;
52266;SDS011;38223;50.940;4.034;2023-01-04T04:27:29;3.52;;;1.30;;
52266;SDS011;38223;50.940;4.034;2023-01-04T04:30:00;2.27;;;1.32;;
52266;SDS011;38223;50.940;4.034;2023-01-04T04:32:32;4.40;;;1.42;;
52266;SDS011;38223;50.940;4.034;2023-01-04T04:35:02;4.28;;;1.30;;
52266;SDS011;38223;50.940;4.034;2023-01-04T04:37:37;2.92;;;1.20;;
52266;SDS011;38223;50.940;4.034;2023-01-04T04:40:07;3.52;;;0.90;;
52266;SDS011;38223;50.940;4.034;2023-01-04T04:42:39;2.65;;;1.22;;
52266;SDS011;38223;50.940;4.034;2023-01-04T04:45:11;2.65;;;1.10;;
52266;SDS011;38223;50.940;4.034;2023-01-04T04:47:44;2.77;;;1.00;;
52266;SDS011;38223;50.940;4.034;2023-01-04T04:53:03;2.58;;;1.15;;
52266;SDS011;38223;50.940;4.034;2023-01-04T04:55:32;3.65;;;1.27;;
52266;SDS011;38223;50.940;4.034;2023-01-04T04:58:05;2.05;;;1.12;;
52266;SDS011;38223;50.940;4.034;2023-01-04T05:00:41;2.65;;;1.12;;
52266;SDS011;38223;50.940;4.034;2023-01-04T05:03:12;1.62;;;0.95;;
52266;SDS011;38223;50.940;4.034;2023-01-04T05:05:43;1.90;;;0.90;;
52266;SDS011;38223;50.940;4.034;2023-01-04T05:08:18;3.85;;;1.10;;
52266;SDS011;38223;50.940;4.034;2023-01-04T05:10:54;3.58;;;1.02;;
52266;SDS011;38223;50.940;4.034;2023-01-04T05:13:28;2.05;;;0.88;;
52266;SDS011;38223;50.940;4.034;2023-01-04T05:16:01;2.60;;;1.00;;
52266;SDS011;38223;50.940;4.034;2023-01-04T05:18:36;4.00;;;1.37;;
52266;SDS011;38223;50.940;4.034;2023-01-04T05:21:07;3.40;;;1.05;;
52266;SDS011;38223;50.940;4.034;2023-01-04T05:23:35;2.08;;;1.20;;
52266;SDS011;38223;50.940;4.034;2023-01-04T05:26:02;4.58;;;1.30;;
52266;SDS011;38223;50.940;4.034;2023-01-04T05:28:30;3.47;;;1.42;;
52266;SDS011;38223;50.940;4.034;2023-01-04T05:31:02;3.35;;;1.40;;
52266;SDS011;38223;50.940;4.034;2023-01-04T05:33:32;3.33;;;1.30;;
52266;SDS011;38223;50.940;4.034;2023-01-04T05:36:05;2.35;;;1.15;;
52266;SDS011;38223;50.940;4.034;2023-01-04T05:38:38;2.83;;;1.15;;
52266;SDS011;38223;50.940;4.034;2023-01-04T05:41:09;2.15;;;1.20;;
52266;SDS011;38223;50.940;4.034;2023-01-04T05:43:56;2.98;;;1.10;;
52266;SDS011;38223;50.940;4.034;2023-01-04T05:46:24;1.70;;;1.15;;
52266;SDS011;38223;50.940;4.034;2023-01-04T05:48:52;3.92;;;1.05;;
52266;SDS011;38223;50.940;4.034;2023-01-04T05:51:19;2.37;;;1.00;;
52266;SDS011;38223;50.940;4.034;2023-01-04T05:53:51;3.50;;;1.30;;
52266;SDS011;38223;50.940;4.034;2023-01-04T05:56:27;1.50;;;0.90;;
52266;SDS011;38223;50.940;4.034;2023-01-04T05:58:57;3.10;;;0.85;;
52266;SDS011;38223;50.940;4.034;2023-01-04T06:01:30;1.85;;;0.78;;
52266;SDS011;38223;50.940;4.034;2023-01-04T06:04:03;1.25;;;0.78;;
52266;SDS011;38223;50.940;4.034;2023-01-04T06:06:37;2.45;;;0.70;;
52266;SDS011;38223;50.940;4.034;2023-01-04T06:09:08;1.85;;;1.02;;
52266;SDS011;38223;50.940;4.034;2023-01-04T06:11:43;0.80;;;0.65;;
52266;SDS011;38223;50.940;4.034;2023-01-04T06:14:16;3.67;;;0.90;;
52266;SDS011;38223;50.940;4.034;2023-01-04T06:16:47;2.40;;;0.80;;
52266;SDS011;38223;50.940;4.034;2023-01-04T06:19:14;2.42;;;0.98;;
52266;SDS011;38223;50.940;4.034;2023-01-04T06:21:43;2.65;;;0.70;;
52266;SDS011;38223;50.940;4.034;2023-01-04T06:24:17;1.98;;;0.80;;
52266;SDS011;38223;50.940;4.034;2023-01-04T06:26:47;2.62;;;1.00;;
52266;SDS011;38223;50.940;4.034;2023-01-04T06:29:21;3.12;;;1.27;;
52266;SDS011;38223;50.940;4.034;2023-01-04T06:31:51;2.87;;;1.00;;
52266;SDS011;38223;50.940;4.034;2023-01-04T06:34:26;2.00;;;1.00;;
52266;SDS011;38223;50.940;4.034;2023-01-04T06:36:56;2.92;;;0.90;;
52266;SDS011;38223;50.940;4.034;2023-01-04T06:39:30;1.10;;;0.85;;
52266;SDS011;38223;50.940;4.034;2023-01-04T06:42:02;2.87;;;1.00;;
52266;SDS011;38223;50.940;4.034;2023-01-04T06:44:38;3.20;;;1.45;;
52266;SDS011;38223;50.940;4.034;2023-01-04T06:47:07;1.82;;;0.80;;
52266;SDS011;38223;50.940;4.034;2023-01-04T06:49:42;3.15;;;1.55;;
52266;SDS011;38223;50.940;4.034;2023-01-04T06:52:13;2.00;;;1.15;;
52266;SDS011;38223;50.940;4.034;2023-01-04T06:54:43;2.75;;;1.05;;
52266;SDS011;38223;50.940;4.034;2023-01-04T06:57:11;2.10;;;1.00;;
52266;SDS011;38223;50.940;4.034;2023-01-04T06:59:39;1.82;;;0.95;;
52266;SDS011;38223;50.940;4.034;2023-01-04T07:02:15;2.75;;;1.17;;
52266;SDS011;38223;50.940;4.034;2023-01-04T07:04:43;3.37;;;0.93;;
52266;SDS011;38223;50.940;4.034;2023-01-04T07:07:16;3.22;;;1.12;;
52266;SDS011;38223;50.940;4.034;2023-01-04T07:09:54;4.17;;;1.27;;
52266;SDS011;38223;50.940;4.034;2023-01-04T07:12:22;3.52;;;0.98;;
52266;SDS011;38223;50.940;4.034;2023-01-04T07:14:54;3.75;;;1.30;;
52266;SDS011;38223;50.940;4.034;2023-01-04T07:17:29;3.47;;;1.20;;
52266;SDS011;38223;50.940;4.034;2023-01-04T07:20:04;3.98;;;1.02;;
52266;SDS011;38223;50.940;4.034;2023-01-04T07:22:37;4.47;;;1.07;;
52266;SDS011;38223;50.940;4.034;2023-01-04T07:25:10;5.17;;;1.20;;
52266;SDS011;38223;50.940;4.034;2023-01-04T07:27:42;3.00;;;0.95;;
52266;SDS011;38223;50.940;4.034;2023-01-04T07:30:15;1.57;;;0.90;;
52266;SDS011;38223;50.940;4.034;2023-01-04T07:32:45;3.65;;;1.22;;
52266;SDS011;38223;50.940;4.034;2023-01-04T07:35:18;2.92;;;0.98;;
52266;SDS011;38223;50.940;4.034;2023-01-04T07:37:54;3.52;;;2.33;;
52266;SDS011;38223;50.940;4.034;2023-01-04T07:40:23;7.87;;;0.90;;
52266;SDS011;38223;50.940;4.034;2023-01-04T07:42:57;2.85;;;0.90;;
52266;SDS011;38223;50.940;4.034;2023-01-04T07:45:29;1.95;;;0.90;;
52266;SDS011;38223;50.940;4.034;2023-01-04T07:48:01;1.27;;;0.85;;
52266;SDS011;38223;50.940;4.034;2023-01-04T07:50:35;2.27;;;1.12;;
52266;SDS011;38223;50.940;4.034;2023-01-04T07:53:05;4.40;;;1.52;;
52266;SDS011;38223;50.940;4.034;2023-01-04T07:55:40;5.05;;;1.10;;
52266;SDS011;38223;50.940;4.034;2023-01-04T07:58:10;1.90;;;0.80;;
52266;SDS011;38223;50.940;4.034;2023-01-04T08:00:45;3.30;;;1.00;;
52266;SDS011;38223;50.940;4.034;2023-01-04T08:03:15;3.83;;;1.00;;
52266;SDS011;38223;50.940;4.034;2023-01-04T08:08:18;2.95;;;0.80;;
52266;SDS011;38223;50.940;4.034;2023-01-04T08:10:59;1.90;;;0.93;;
52266;SDS011;38223;50.940;4.034;2023-01-04T08:13:32;2.12;;;0.72;;
52266;SDS011;38223;50.940;4.034;2023-01-04T08:16:08;1.35;;;0.80;;
52266;SDS011;38223;50.940;4.034;2023-01-04T08:18:39;1.87;;;0.80;;
52266;SDS011;38223;50.940;4.034;2023-01-04T08:21:11;1.47;;;0.75;;
52266;SDS011;38223;50.940;4.034;2023-01-04T08:23:41;1.42;;;0.90;;
52266;SDS011;38223;50.940;4.034;2023-01-04T08:28:39;1.77;;;1.05;;
52266;SDS011;38223;50.940;4.034;2023-01-04T08:31:15;4.03;;;1.77;;
52266;SDS011;38223;50.940;4.034;2023-01-04T08:33:49;1.70;;;1.05;;
52266;SDS011;38223;50.940;4.034;2023-01-04T08:39:01;2.85;;;1.12;;
52266;SDS011;38223;50.940;4.034;2023-01-04T08:41:42;2.55;;;1.10;;
52266;SDS011;38223;50.940;4.034;2023-01-04T08:44:17;2.45;;;1.40;;
52266;SDS011;38223;50.940;4.034;2023-01-04T08:46:51;2.52;;;1.42;;
52266;SDS011;38223;50.940;4.034;2023-01-04T08:49:20;3.17;;;1.55;;
52266;SDS011;38223;50.940;4.034;2023-01-04T08:51:49;4.15;;;2.00;;
52266;SDS011;38223;50.940;4.034;2023-01-04T08:54:17;2.85;;;1.62;;
52266;SDS011;38223;50.940;4.034;2023-01-04T08:56:46;5.35;;;1.75;;
52266;SDS011;38223;50.940;4.034;2023-01-04T08:59:19;3.35;;;1.52;;
52266;SDS011;38223;50.940;4.034;2023-01-04T09:01:52;3.47;;;1.37;;
52266;SDS011;38223;50.940;4.034;2023-01-04T09:04:21;4.10;;;1.60;;
52266;SDS011;38223;50.940;4.034;2023-01-04T09:06:53;3.50;;;1.40;;
52266;SDS011;38223;50.940;4.034;2023-01-04T09:09:28;4.00;;;1.52;;
52266;SDS011;38223;50.940;4.034;2023-01-04T09:12:01;4.40;;;1.35;;
52266;SDS011;38223;50.940;4.034;2023-01-04T09:17:01;4.90;;;1.37;;
52266;SDS011;38223;50.940;4.034;2023-01-04T09:19:33;5.75;;;1.10;;
52266;SDS011;38223;50.940;4.034;2023-01-04T09:22:07;1.60;;;0.95;;
52266;SDS011;38223;50.940;4.034;2023-01-04T09:24:36;3.65;;;1.20;;
52266;SDS011;38223;50.940;4.034;2023-01-04T09:27:26;3.00;;;0.80;;
52266;SDS011;38223;50.940;4.034;2023-01-04T09:30:00;5.20;;;1.40;;
52266;SDS011;38223;50.940;4.034;2023-01-04T09:32:30;2.75;;;1.52;;
52266;SDS011;38223;50.940;4.034;2023-01-04T09:34:58;1.90;;;1.02;;
52266;SDS011;38223;50.940;4.034;2023-01-04T09:37:29;1.67;;;1.10;;
52266;SDS011;38223;50.940;4.034;2023-01-04T09:40:02;5.30;;;1.60;;
52266;SDS011;38223;50.940;4.034;2023-01-04T09:42:37;1.70;;;1.30;;
52266;SDS011;38223;50.940;4.034;2023-01-04T09:45:18;2.75;;;1.30;;
52266;SDS011;38223;50.940;4.034;2023-01-04T09:47:56;2.50;;;1.30;;
52266;SDS011;38223;50.940;4.034;2023-01-04T09:50:28;2.10;;;1.20;;
52266;SDS011;38223;50.940;4.034;2023-01-04T09:53:09;2.40;;;1.17;;
52266;SDS011;38223;50.940;4.034;2023-01-04T09:55:46;4.12;;;0.90;;
52266;SDS011;38223;50.940;4.034;2023-01-04T09:58:24;2.33;;;0.90;;
52266;SDS011;38223;50.940;4.034;2023-01-04T10:04:01;2.85;;;1.17;;
52266;SDS011;38223;50.940;4.034;2023-01-04T10:06:30;2.60;;;1.00;;
52266;SDS011;38223;50.940;4.034;2023-01-04T10:09:05;5.33;;;1.30;;
52266;SDS011;38223;50.940;4.034;2023-01-04T10:11:40;2.92;;;1.50;;
52266;SDS011;38223;50.940;4.034;2023-01-04T10:14:22;3.70;;;1.17;;
52266;SDS011;38223;50.940;4.034;2023-01-04T10:17:05;3.02;;;1.57;;
52266;SDS011;38223;50.940;4.034;2023-01-04T10:23:10;2.27;;;1.37;;
52266;SDS011;38223;50.940;4.034;2023-01-04T10:25:55;1.82;;;1.10;;
52266;SDS011;38223;50.940;4.034;2023-01-04T10:28:30;3.40;;;1.42;;
52266;SDS011;38223;50.940;4.034;2023-01-04T10:36:45;3.00;;;1.50;;
52266;SDS011;38223;50.940;4.034;2023-01-04T10:39:24;3.70;;;1.40;;
52266;SDS011;38223;50.940;4.034;2023-01-04T10:50:24;3.12;;;1.57;;
52266;SDS011;38223;50.940;4.034;2023-01-04T10:53:04;1.85;;;1.40;;
52266;SDS011;38223;50.940;4.034;2023-01-04T10:55:58;3.08;;;1.47;;
52266;SDS011;38223;50.940;4.034;2023-01-04T10:58:37;3.45;;;1.57;;
52266;SDS011;38223;50.940;4.034;2023-01-04T11:01:30;3.20;;;1.72;;
52266;SDS011;38223;50.940;4.034;2023-01-04T11:09:48;1.67;;;1.40;;
52266;SDS011;38223;50.940;4.034;2023-01-04T11:12:21;2.12;;;1.52;;
52266;SDS011;38223;50.940;4.034;2023-01-04T11:14:54;3.05;;;2.20;;
52266;SDS011;38223;50.940;4.034;2023-01-04T11:17:28;2.52;;;1.72;;
52266;SDS011;38223;50.940;4.034;2023-01-04T11:19:58;3.15;;;1.65;;
52266;SDS011;38223;50.940;4.034;2023-01-04T11:25:17;2.72;;;1.85;;
52266;SDS011;38223;50.940;4.034;2023-01-04T11:27:54;4.20;;;2.47;;
52266;SDS011;38223;50.940;4.034;2023-01-04T11:30:37;2.50;;;1.87;;
52266;SDS011;38223;50.940;4.034;2023-01-04T11:33:23;2.95;;;1.80;;
52266;SDS011;38223;50.940;4.034;2023-01-04T11:35:59;3.12;;;2.30;;
52266;SDS011;38223;50.940;4.034;2023-01-04T11:38:32;2.98;;;2.00;;
52266;SDS011;38223;50.940;4.034;2023-01-04T11:41:07;3.12;;;2.20;;
52266;SDS011;38223;50.940;4.034;2023-01-04T11:43:41;3.00;;;2.40;;
52266;SDS011;38223;50.940;4.034;2023-01-04T11:48:53;4.83;;;2.33;;
52266;SDS011;38223;50.940;4.034;2023-01-04T11:54:03;2.85;;;2.25;;
52266;SDS011;38223;50.940;4.034;2023-01-04T11:56:37;3.37;;;2.17;;
52266;SDS011;38223;50.940;4.034;2023-01-04T11:59:11;2.98;;;2.47;;
52266;SDS011;38223;50.940;4.034;2023-01-04T12:01:46;2.30;;;2.10;;
52266;SDS011;38223;50.940;4.034;2023-01-04T12:04:20;4.45;;;1.80;;
52266;SDS011;38223;50.940;4.034;2023-01-04T12:06:57;3.00;;;2.20;;
52266;SDS011;38223;50.940;4.034;2023-01-04T12:09:39;2.40;;;2.15;;
52266;SDS011;38223;50.940;4.034;2023-01-04T12:12:15;2.83;;;2.08;;
52266;SDS011;38223;50.940;4.034;2023-01-04T12:14:49;3.35;;;2.20;;
52266;SDS011;38223;50.940;4.034;2023-01-04T12:17:18;2.58;;;2.37;;
52266;SDS011;38223;50.940;4.034;2023-01-04T12:19:55;2.62;;;1.65;;
52266;SDS011;38223;50.940;4.034;2023-01-04T12:22:32;2.10;;;1.90;;
52266;SDS011;38223;50.940;4.034;2023-01-04T12:28:02;2.65;;;1.70;;
52266;SDS011;38223;50.940;4.034;2023-01-04T12:30:39;2.10;;;1.90;;
52266;SDS011;38223;50.940;4.034;2023-01-04T12:36:11;2.45;;;1.85;;
52266;SDS011;38223;50.940;4.034;2023-01-04T12:50:22;1.27;;;0.98;;
52266;SDS011;38223;50.940;4.034;2023-01-04T12:52:56;0.98;;;0.90;;
52266;SDS011;38223;50.940;4.034;2023-01-04T13:03:45;0.80;;;0.60;;
52266;SDS011;38223;50.940;4.034;2023-01-04T13:06:16;1.22;;;0.90;;
52266;SDS011;38223;50.940;4.034;2023-01-04T13:08:53;1.95;;;0.90;;
52266;SDS011;38223;50.940;4.034;2023-01-04T13:14:05;2.05;;;0.80;;
52266;SDS011;38223;50.940;4.034;2023-01-04T13:16:46;3.12;;;1.10;;
52266;SDS011;38223;50.940;4.034;2023-01-04T13:19:21;1.98;;;0.90;;
52266;SDS011;38223;50.940;4.034;2023-01-04T13:21:54;3.75;;;1.10;;
52266;SDS011;38223;50.940;4.034;2023-01-04T13:24:30;4.25;;;1.12;;
52266;SDS011;38223;50.940;4.034;2023-01-04T13:27:07;4.22;;;1.20;;
52266;SDS011;38223;50.940;4.034;2023-01-04T13:29:36;1.52;;;1.00;;
52266;SDS011;38223;50.940;4.034;2023-01-04T13:35:02;4.35;;;1.30;;
52266;SDS011;38223;50.940;4.034;2023-01-04T13:37:37;3.98;;;1.77;;
52266;SDS011;38223;50.940;4.034;2023-01-04T13:43:11;4.05;;;1.55;;
52266;SDS011;38223;50.940;4.034;2023-01-04T13:48:46;4.12;;;1.42;;
52266;SDS011;38223;50.940;4.034;2023-01-04T13:51:28;2.50;;;1.30;;
52266;SDS011;38223;50.940;4.034;2023-01-04T13:54:00;2.92;;;1.47;;
52266;SDS011;38223;50.940;4.034;2023-01-04T13:56:36;6.62;;;1.77;;
52266;SDS011;38223;50.940;4.034;2023-01-04T13:59:12;6.70;;;1.80;;
52266;SDS011;38223;50.940;4.034;2023-01-04T14:01:41;5.42;;;1.75;;
52266;SDS011;38223;50.940;4.034;2023-01-04T14:04:21;3.62;;;1.40;;
52266;SDS011;38223;50.940;4.034;2023-01-04T14:07:02;5.40;;;1.42;;
52266;SDS011;38223;50.940;4.034;2023-01-04T14:09:41;7.75;;;1.77;;
52266;SDS011;38223;50.940;4.034;2023-01-04T14:12:12;4.12;;;1.47;;
52266;SDS011;38223;50.940;4.034;2023-01-04T14:14:53;5.37;;;1.60;;
52266;SDS011;38223;50.940;4.034;2023-01-04T14:22:57;7.58;;;1.95;;
52266;SDS011;38223;50.940;4.034;2023-01-04T14:28:23;4.37;;;1.70;;
52266;SDS011;38223;50.940;4.034;2023-01-04T14:33:47;3.85;;;1.20;;
52266;SDS011;38223;50.940;4.034;2023-01-04T14:39:06;2.08;;;0.80;;
52266;SDS011;38223;50.940;4.034;2023-01-04T14:41:40;5.35;;;1.05;;
52266;SDS011;38223;50.940;4.034;2023-01-04T14:44:17;2.05;;;0.78;;
52266;SDS011;38223;50.940;4.034;2023-01-04T14:46:50;1.95;;;0.60;;
52266;SDS011;38223;50.940;4.034;2023-01-04T14:49:20;1.30;;;0.82;;
52266;SDS011;38223;50.940;4.034;2023-01-04T14:51:50;1.42;;;0.70;;
52266;SDS011;38223;50.940;4.034;2023-01-04T14:54:20;1.87;;;0.80;;
52266;SDS011;38223;50.940;4.034;2023-01-04T14:56:50;5.17;;;0.82;;
52266;SDS011;38223;50.940;4.034;2023-01-04T14:59:22;3.98;;;1.05;;
52266;SDS011;38223;50.940;4.034;2023-01-04T15:01:54;3.00;;;1.00;;
52266;SDS011;38223;50.940;4.034;2023-01-04T15:04:29;3.25;;;1.30;;
52266;SDS011;38223;50.940;4.034;2023-01-04T15:07:01;4.58;;;1.17;;
52266;SDS011;38223;50.940;4.034;2023-01-04T15:09:36;3.85;;;1.00;;
52266;SDS011;38223;50.940;4.034;2023-01-04T15:12:08;5.80;;;1.22;;
52266;SDS011;38223;50.940;4.034;2023-01-04T15:14:42;9.35;;;1.80;;
52266;SDS011;38223;50.940;4.034;2023-01-04T15:17:13;3.90;;;1.50;;
52266;SDS011;38223;50.940;4.034;2023-01-04T15:19:43;10.10;;;2.58;;
52266;SDS011;38223;50.940;4.034;2023-01-04T15:22:16;9.48;;;2.27;;
52266;SDS011;38223;50.940;4.034;2023-01-04T15:24:45;15.35;;;3.08;;
52266;SDS011;38223;50.940;4.034;2023-01-04T15:27:14;13.40;;;2.60;;
52266;SDS011;38223;50.940;4.034;2023-01-04T15:29:46;16.73;;;3.10;;
52266;SDS011;38223;50.940;4.034;2023-01-04T15:32:18;13.53;;;3.10;;
52266;SDS011;38223;50.940;4.034;2023-01-04T15:34:50;17.35;;;3.15;;
52266;SDS011;38223;50.940;4.034;2023-01-04T15:37:18;20.90;;;4.20;;
52266;SDS011;38223;50.940;4.034;2023-01-04T15:39:50;22.30;;;3.92;;
52266;SDS011;38223;50.940;4.034;2023-01-04T15:42:19;19.92;;;4.25;;
52266;SDS011;38223;50.940;4.034;2023-01-04T15:45:08;27.40;;;5.33;;
52266;SDS011;38223;50.940;4.034;2023-01-04T15:47:37;21.30;;;4.83;;
52266;SDS011;38223;50.940;4.034;2023-01-04T15:50:11;25.37;;;4.45;;
52266;SDS011;38223;50.940;4.034;2023-01-04T15:52:42;25.52;;;4.87;;
52266;SDS011;38223;50.940;4.034;2023-01-04T15:55:14;26.35;;;5.45;;
52266;SDS011;38223;50.940;4.034;2023-01-04T15:57:46;34.10;;;5.60;;
52266;SDS011;38223;50.940;4.034;2023-01-04T16:00:15;31.00;;;6.20;;
52266;SDS011;38223;50.940;4.034;2023-01-04T16:02:47;41.90;;;6.50;;
52266;SDS011;38223;50.940;4.034;2023-01-04T16:05:19;31.90;;;7.20;;
52266;SDS011;38223;50.940;4.034;2023-01-04T16:07:49;32.83;;;6.28;;
52266;SDS011;38223;50.940;4.034;2023-01-04T16:10:17;31.75;;;6.65;;
52266;SDS011;38223;50.940;4.034;2023-01-04T16:12:46;38.90;;;6.57;;
52266;SDS011;38223;50.940;4.034;2023-01-04T16:15:15;37.45;;;6.03;;
52266;SDS011;38223;50.940;4.034;2023-01-04T16:17:44;25.37;;;4.97;;
52266;SDS011;38223;50.940;4.034;2023-01-04T16:20:13;27.27;;;6.12;;
52266;SDS011;38223;50.940;4.034;2023-01-04T16:22:42;36.77;;;6.65;;
52266;SDS011;38223;50.940;4.034;2023-01-04T16:25:09;33.75;;;6.03;;
52266;SDS011;38223;50.940;4.034;2023-01-04T16:27:37;38.58;;;7.15;;
52266;SDS011;38223;50.940;4.034;2023-01-04T16:30:07;33.70;;;7.15;;
52266;SDS011;38223;50.940;4.034;2023-01-04T16:32:41;32.15;;;6.87;;
52266;SDS011;38223;50.940;4.034;2023-01-04T16:35:10;41.05;;;7.28;;
52266;SDS011;38223;50.940;4.034;2023-01-04T16:37:38;36.93;;;6.75;;
52266;SDS011;38223;50.940;4.034;2023-01-04T16:40:08;34.88;;;7.55;;
52266;SDS011;38223;50.940;4.034;2023-01-04T16:42:38;34.75;;;6.12;;
52266;SDS011;38223;50.940;4.034;2023-01-04T16:45:10;35.78;;;6.62;;
52266;SDS011;38223;50.940;4.034;2023-01-04T16:47:40;38.95;;;7.37;;
52266;SDS011;38223;50.940;4.034;2023-01-04T16:50:13;57.58;;;9.53;;
52266;SDS011;38223;50.940;4.034;2023-01-04T16:52:40;37.73;;;7.78;;
52266;SDS011;38223;50.940;4.034;2023-01-04T16:55:08;27.75;;;6.55;;
52266;SDS011;38223;50.940;4.034;2023-01-04T16:57:36;39.53;;;7.53;;
52266;SDS011;38223;50.940;4.034;2023-01-04T17:00:03;34.50;;;8.35;;
52266;SDS011;38223;50.940;4.034;2023-01-04T17:02:32;44.88;;;7.20;;
52266;SDS011;38223;50.940;4.034;2023-01-04T17:04:59;32.00;;;6.95;;
52266;SDS011;38223;50.940;4.034;2023-01-04T17:07:27;40.98;;;8.43;;
52266;SDS011;38223;50.940;4.034;2023-01-04T17:09:57;38.55;;;7.85;;
52266;SDS011;38223;50.940;4.034;2023-01-04T17:12:25;36.95;;;6.67;;
52266;SDS011;38223;50.940;4.034;2023-01-04T17:14:53;41.20;;;7.62;;
52266;SDS011;38223;50.940;4.034;2023-01-04T17:17:24;36.25;;;7.20;;
52266;SDS011;38223;50.940;4.034;2023-01-04T17:19:57;41.20;;;8.00;;
52266;SDS011;38223;50.940;4.034;2023-01-04T17:22:29;38.08;;;7.50;;
52266;SDS011;38223;50.940;4.034;2023-01-04T17:24:56;44.55;;;7.22;;
52266;SDS011;38223;50.940;4.034;2023-01-04T17:27:24;39.03;;;7.72;;
52266;SDS011;38223;50.940;4.034;2023-01-04T17:29:54;38.55;;;7.40;;
52266;SDS011;38223;50.940;4.034;2023-01-04T17:32:22;41.15;;;7.47;;
52266;SDS011;38223;50.940;4.034;2023-01-04T17:34:51;45.83;;;7.35;;